Flight Track Log - Related Links

Times and Time Zones

All times are in EDT time to prevent confusion due to time zone crossing. See the DAL3982 flight status page for this flight to view local times or setup timezone preferences in your user account.

Time Position Orientation Groundspeed Altitude Reporting Facility
EDT Latitude Longitude Course Direction KTS MPH feet Rate Location/Type
Thu 09:09:53 PM 33.6494 -84.4706 North 446 513 2,800  Level Atlanta Center
Thu 09:10:18 PM 33.6667 -84.5000 305° West 208 239 3,300 2,471 Climbing Atlanta TRACON
Thu 09:11:18 PM 33.6833 -84.5667 287° West 264 304 6,300 2,671 Climbing Atlanta TRACON
Thu 09:12:53 PM 33.7994 -84.5811 354° North 280 322 10,200 1,858 Climbing Atlanta Center
Thu 09:13:00 PM 33.9170 -84.2503 320° Northwest  Level FlightAware Approximate
Thu 09:13:53 PM 33.8789 -84.5392 24° Northeast 294 338 11,100  Level Atlanta Center
Thu 09:14:00 PM 34.0303 -84.2667 North  Level FlightAware Approximate
Thu 09:14:53 PM 33.9856 -84.4697 28° Northeast 348 400 12,800  Level Atlanta Center
Thu 09:15:00 PM 34.1485 -84.2667 North  Level FlightAware Approximate
Thu 09:15:53 PM 34.0797 -84.4125 27° Northeast 366 421 14,900  Level Atlanta Center
Thu 09:16:53 PM 34.1800 -84.3503 27° Northeast 391 450 17,000 1,600 Climbing Atlanta Center
Thu 09:17:53 PM 34.2783 -84.2903 27° Northeast 391 450 18,100 1,150 Climbing Atlanta Center
Thu 09:18:53 PM 34.3931 -84.2578 13° North 398 458 19,300 1,100 Climbing Atlanta Center
Thu 09:19:53 PM 34.4953 -84.2328 11° North 410 472 20,300 1,350 Climbing Atlanta Center
Thu 09:20:53 PM 34.6144 -84.2053 11° North 426 490 22,000 1,650 Climbing Atlanta Center
Thu 09:21:53 PM 34.7250 -84.1778 12° North 426 490 23,600 1,300 Climbing Atlanta Center
Thu 09:22:53 PM 34.8439 -84.1525 10° North 426 490 24,600 900 Climbing Atlanta Center
Thu 09:23:53 PM 34.9631 -84.1250 11° North 431 496 25,400 800 Climbing Atlanta Center
Thu 09:24:53 PM 35.0861 -84.0947 11° North 436 502 26,200 900 Climbing Atlanta Center
Thu 09:25:53 PM 35.2092 -84.0642 11° North 441 507 27,200 1,300 Climbing Atlanta Center
Thu 09:26:53 PM 35.3322 -84.0183 17° North 451 519 28,800 1,450 Climbing Atlanta Center
Thu 09:27:53 PM 35.4492 -83.9647 20° North 451 519 30,100 1,100 Climbing Atlanta Center
Thu 09:28:53 PM 35.5658 -83.9136 20° North 451 519 31,000 800 Climbing Atlanta Center
Thu 09:29:53 PM 35.6828 -83.8622 20° North 446 513 31,700 600 Climbing Atlanta Center
Thu 09:30:53 PM 35.8014 -83.8108 19° North 446 513 32,200 550 Climbing Atlanta Center
Thu 09:31:53 PM 35.9203 -83.7542 21° North 451 519 32,800 550 Climbing Atlanta Center
Thu 09:32:53 PM 36.0433 -83.7022 19° North 451 519 33,300 500 Climbing Atlanta Center
Thu 09:33:53 PM 36.1619 -83.6453 21° North 451 519 33,800 500 Climbing Atlanta Center
Thu 09:34:53 PM 36.2828 -83.5931 19° North 451 519 34,300 540 Climbing Atlanta Center
Thu 09:35:33 PM 36.3797 -83.5472 21° North 461 531 34,700 412 Climbing Indianapolis Center
Thu 09:36:35 PM 36.5019 -83.4911 20° North 461 531 35,000 146 Climbing Indianapolis Center
Thu 09:37:36 PM 36.6244 -83.4358 20° North 465 535 35,000  Level Indianapolis Center
Thu 09:38:37 PM 36.7450 -83.3594 27° Northeast 480 552 35,000 98 Level Indianapolis Center
Thu 09:39:38 PM 36.8647 -83.2831 27° Northeast 479 551 35,200 341 Climbing Indianapolis Center
Thu 09:40:40 PM 36.9792 -83.1922 32° Northeast 483 556 35,700 488 Climbing Indianapolis Center
Thu 09:41:41 PM 37.0919 -83.0908 36° Northeast 487 560 36,200 590 Climbing Indianapolis Center
Thu 09:42:42 PM 37.2025 -82.9906 36° Northeast 483 556 36,900 390 Climbing Indianapolis Center
Thu 09:43:44 PM 37.3114 -82.8917 36° Northeast 479 551 37,000 49 Climbing Indianapolis Center
Thu 09:44:45 PM 37.4231 -82.7922 35° Northeast 490 564 37,000  Level Indianapolis Center
Thu 09:45:46 PM 37.5331 -82.6919 36° Northeast 488 562 37,000  Level Indianapolis Center
Thu 09:46:48 PM 37.6444 -82.5897 36° Northeast 493 567 37,000  Level Indianapolis Center
Thu 09:47:49 PM 37.7561 -82.4864 36° Northeast 496 571 37,000  Level Indianapolis Center
Thu 09:48:50 PM 37.8675 -82.3833 36° Northeast 496 571 37,000  Level Indianapolis Center
Thu 09:49:52 PM 37.9967 -82.2644 36° Northeast 492 566 37,000  Level Indianapolis Center
Thu 09:50:53 PM 38.1067 -82.1594 37° Northeast 493 567 37,000  Level Indianapolis Center
Thu 09:51:54 PM 38.2164 -82.0592 36° Northeast 487 560 37,000  Level Indianapolis Center
Thu 09:52:56 PM 38.3250 -81.9575 36° Northeast 489 563 37,000  Level Indianapolis Center
Thu 09:53:57 PM 38.4350 -81.8542 36° Northeast 489 563 37,000  Level Indianapolis Center
Thu 09:54:58 PM 38.5456 -81.7500 36° Northeast 491 565 37,000  Level Indianapolis Center
Thu 09:56:00 PM 38.6558 -81.6458 36° Northeast 489 563 37,000  Level Indianapolis Center
Thu 09:57:01 PM 38.7636 -81.5414 37° Northeast 484 557 37,000  Level Indianapolis Center
Thu 09:58:02 PM 38.8808 -81.4300 36° Northeast 487 560 37,000  Level Indianapolis Center
Thu 09:59:04 PM 38.9903 -81.3253 37° Northeast 488 562 37,000  Level Indianapolis Center
Thu 10:00:05 PM 39.0992 -81.2211 37° Northeast 488 562 37,000  Level Indianapolis Center
Thu 10:01:06 PM 39.2081 -81.1150 37° Northeast 491 565 37,000  Level Indianapolis Center
Thu 10:02:07 PM 39.3175 -81.0094 37° Northeast 490 564 37,000  Level Indianapolis Center
Thu 10:03:08 PM 39.4261 -80.9025 37° Northeast 490 564 37,000  Level Indianapolis Center
Thu 10:04:09 PM 39.5344 -80.7967 37° Northeast 488 562 37,000  Level Indianapolis Center
Thu 10:05:11 PM 39.6431 -80.6900 37° Northeast 489 563 37,000  Level Indianapolis Center
Thu 10:05:38 PM 39.7128 -80.6236 36° Northeast 486 559 37,000  Level Cleveland Center
Thu 10:06:38 PM 39.8211 -80.5183 37° Northeast 481 554 37,000  Level Cleveland Center
Thu 10:07:38 PM 39.9275 -80.4125 37° Northeast 481 554 37,000  Level Cleveland Center
Thu 10:08:38 PM 40.0378 -80.3039 37° Northeast 481 554 37,000  Level Cleveland Center
Thu 10:09:38 PM 40.1458 -80.1947 38° Northeast 481 554 37,000  Level Cleveland Center
Thu 10:10:38 PM 40.2369 -80.0964 39° Northeast 481 554 37,000  Level Cleveland Center
Thu 10:11:38 PM 40.3511 -79.9864 36° Northeast 492 566 37,000  Level Cleveland Center
Thu 10:12:38 PM 40.4611 -79.8736 38° Northeast 498 573 37,000  Level Cleveland Center
Thu 10:13:38 PM 40.5708 -79.7631 37° Northeast 498 573 37,000  Level Cleveland Center
Thu 10:14:38 PM 40.6806 -79.6522 37° Northeast 498 573 37,000  Level Cleveland Center
Thu 10:15:38 PM 40.7919 -79.5383 38° Northeast 504 580 37,000  Level Cleveland Center
Thu 10:16:38 PM 40.9014 -79.4239 38° Northeast 504 580 37,000  Level Cleveland Center
Thu 10:17:38 PM 41.0128 -79.3119 37° Northeast 504 580 37,000  Level Cleveland Center
Thu 10:18:38 PM 41.1219 -79.1939 39° Northeast 504 580 37,000  Level Cleveland Center
Thu 10:19:38 PM 41.2331 -79.0811 37° Northeast 504 580 37,000  Level Cleveland Center
Thu 10:20:38 PM 41.3419 -78.9653 39° Northeast 504 580 37,000  Level Cleveland Center
Thu 10:21:38 PM 41.4508 -78.8489 39° Northeast 510 587 37,000  Level Cleveland Center
Thu 10:22:38 PM 41.5636 -78.7350 37° Northeast 510 587 37,000  Level Cleveland Center
Thu 10:23:38 PM 41.6700 -78.6150 40° Northeast 510 587 37,000  Level Cleveland Center
Thu 10:24:38 PM 41.7828 -78.4975 38° Northeast 505 581 37,000  Level Cleveland Center
Thu 10:25:38 PM 41.8908 -78.3794 39° Northeast 510 587 37,000  Level Cleveland Center
Thu 10:26:38 PM 41.9992 -78.2642 38° Northeast 510 587 37,000  Level Cleveland Center
Thu 10:27:38 PM 42.1217 -78.1364 38° Northeast 510 587 37,000  Level Cleveland Center
Thu 10:28:38 PM 42.2294 -78.0172 39° Northeast 510 587 37,000  Level Cleveland Center
Thu 10:29:38 PM 42.3372 -77.9006 39° Northeast 510 587 37,000  Level Cleveland Center
Thu 10:30:38 PM 42.4267 -77.8011 39° Northeast 510 587 37,000  Level Cleveland Center
Thu 10:31:38 PM 42.5444 -77.6747 38° Northeast 505 581 37,000  Level Cleveland Center
Thu 10:32:38 PM 42.6539 -77.5567 38° Northeast 505 581 37,000  Level Cleveland Center
Thu 10:33:38 PM 42.7611 -77.4328 40° Northeast 505 581 37,000  Level Cleveland Center
Thu 10:35:52 PM 43.0028 -77.1625 39° Northeast 504 580 37,000  Level Boston Center
Thu 10:36:52 PM 43.1081 -77.0397 40° Northeast 504 580 37,000  Level Boston Center
Thu 10:37:52 PM 43.2192 -76.9169 39° Northeast 504 580 37,000  Level Boston Center
Thu 10:38:52 PM 43.3283 -76.7933 39° Northeast 504 580 37,000  Level Boston Center
Thu 10:39:52 PM 43.4350 -76.6694 40° Northeast 504 580 37,000  Level Boston Center
Thu 10:40:52 PM 43.5461 -76.5425 40° Northeast 504 580 37,000  Level Boston Center
Thu 10:41:52 PM 43.6569 -76.4153 40° Northeast 504 580 37,000  Level Boston Center
Thu 10:42:52 PM 43.7656 -76.2872 40° Northeast 504 580 37,000  Level Boston Center
Thu 10:43:52 PM 43.8739 -76.1617 40° Northeast 504 580 37,000 -750 Level Boston Center
Thu 10:44:52 PM 43.9861 -76.0386 38° Northeast 504 580 35,500 -1,750 Descending Boston Center
Thu 10:45:52 PM 44.1019 -75.9358 32° Northeast 504 580 33,500 -1,950 Descending Boston Center
Thu 10:46:52 PM 44.2156 -75.8294 34° Northeast 498 573 31,600 -1,900 Descending Boston Center
Thu 10:47:52 PM 44.3311 -75.7286 32° Northeast 493 567 29,700 -1,900 Descending Boston Center
Thu 10:48:52 PM 44.4464 -75.6244 33° Northeast 493 567 27,800 -1,900 Descending Boston Center
Thu 10:49:52 PM 44.5619 -75.5200 33° Northeast 493 567 25,900 -1,900 Descending Boston Center
Thu 10:50:52 PM 44.6772 -75.4181 32° Northeast 493 567 24,000 -2,025 Descending Boston Center
Thu 10:51:12 PM 44.7167 -75.3500 51° Northeast 490 564 23,200 -1,800 Descending Montreal Center
Thu 10:52:12 PM 44.8000 -75.2333 45° Northeast 490 564 21,600 -1,650 Descending Montreal Center
Thu 10:53:12 PM 44.8833 -75.0667 55° Northeast 470 541 19,900 -1,600 Descending Montreal Center
Thu 10:54:12 PM 44.9500 -74.9500 51° Northeast 450 518 18,400 -1,450 Descending Montreal Center
Thu 10:55:12 PM 45.0333 -74.7833 55° Northeast 440 506 17,000 -1,250 Descending Montreal Center
Thu 10:56:12 PM 45.0833 -74.6667 59° Northeast 430 495 15,900 -1,150 Descending Montreal Center
Thu 10:57:12 PM 45.1500 -74.5167 58° Northeast 420 483 14,700 -1,000 Descending Montreal Center
Thu 10:58:12 PM 45.2167 -74.3833 55° Northeast 410 472 13,900 -850 Descending Montreal Center
Thu 10:59:12 PM 45.2833 -74.2333 58° Northeast 410 472 13,000 -900 Descending Montreal Center
Thu 11:00:12 PM 45.3333 -74.1167 59° Northeast 400 460 12,100 -1,450 Descending Montreal Center
Thu 11:01:12 PM 45.3833 -74.0167 55° Northeast 340 391 10,100 -1,700 Descending Montreal Center
Thu 11:02:12 PM 45.4500 -73.9167 46° Northeast 270 311 8,700 -1,900 Descending Montreal Center
Thu 11:03:12 PM 45.5000 -73.8333 49° Northeast 270 311 6,300 -1,400 Descending Montreal Center
Thu 11:04:12 PM 45.5500 -73.7667 43° Northeast 280 322 5,900 -1,100 Descending Montreal Center
Thu 11:05:12 PM 45.6167 -73.7000 35° Northeast 270 311 4,100 -950 Descending Montreal Center
Thu 11:06:12 PM 45.6667 -73.6333 43° Northeast 220 253 4,000 -400 Descending Montreal Center
Thu 11:07:12 PM 45.6667 -73.5667 90° East 230 265 3,300 -500 Descending Montreal Center
Thu 11:08:12 PM 45.6000 -73.5500 170° South 220 253 3,000 -300 Descending Montreal Center

Login

Don't have an account? Register now (free) for customized features, flight alerts, and more!